Rejestracja

Wszystkie dane podawane są w czasie UTC za wyjątkiem miejsc gdzie jest jednoznacznie podane, że jest inaczej. Dane podawane w serwisie mają charakter informacyjny!!!
Informacje w sprawie dostępu do serwisu pod numerem tel. +48 261-828-559 lub +48 261-828-138
Informacja dla żołnierzy i pracowników wojska: Prosimy o niezwłoczną zmianę adresu e-mail w profilu użytkownika na pocztę w domenie @ron.mil.pl
Brak służbowego adresu e-mail skutkuje usunięciem konta.

Aktualna Pogoda
 
Pogoda w Polsce
3°C Szczecin -2°C Suwałki 1°C Warszawa 4°C Poznan
2°C Opole 2°C Kraków 1°C Rzeszów
Więcej miast w Polsce

Pogoda w Europie
4°C Berlin 9°C Paryz 10°C Bruksela -9°C Oslo
3°C Praga 6°C Zagrzeb
Więcej miast w Europie

Metary wojskowe test
METAR EPBC 301800Z AUTO 24006KT 9999 -SN BKN011 01/01 Q0988=
METAR EPCE 301900Z 36006KT 5000 BR OVC003 00/M00 Q0990 RMK 001 096 8/8=
METAR EPDA 301900Z 04010KT 010V090 9999 -RA BKN021 03/01 Q0992 RMK 031 086 7/7=
METAR EPDE 301900Z 22010KT 4000 -SN BR BKN005 BKN011 OVC015 01/00 Q0990 RMK 006 097 8/5=
METAR EPIR 301900Z 28016KT 9999 BKN020 03/01 Q0988 RMK 030 085 7/7=
METAR EPKS 301900Z 28023KT 9999 OVC020 04/01 Q0992 RMK 038 082 8/8=
METAR EPLK 301900Z 25013KT 9999 SCT009 OVC013 02/02 Q0991 RMK 016 100 8/4=
METAR EPLY 301900Z 25014KT 9999 OVC025 03/01 Q0989 RMK 030 089 8/8=
METAR EPMB 301900Z 32006KT 290V360 5000 BR BKN003 BKN020 00/00 Q0989 RMK 003 100 7/5=
METAR EPMI 301900Z 29014KT 8000 -RA BKN007 BKN012 03/02 Q0990 RMK 027 094 7/5=
METAR EPMM 301900Z 27009KT 230V290 1000 R26/P2000N +SN OVC003 00/00 Q0988 RMK 001 100 8/8=
METAR EPOK 301900Z 04009KT 360V080 7000 FEW009 OVC013 03/M00 Q0990 RMK 027 082 8/2=
METAR EPPR 301900Z 30006KT 8000 BKN025 BKN088 M01/M01 Q0989 RMK M007 097 7/5=
METAR EPPW 301900Z 27016G26KT 8000 -RA SCT013 OVC017 03/03 Q0990 RMK 029 100 8/4=
METAR EPSN 301900Z 36010KT 9999 BKN008 BKN012 02/00 Q0991 RMK 021 088 7/5=
METAR EPTM 301900Z 22010KT 6000 -RASN BKN005 OVC011 01/01 Q0990 RMK 012 097 8/6=


 

Prawa autorskie©2007 SSH SZ RP. Wszelkie prawa zastrzeżone.